createdAt,value
2018-11-05T00:00:21.168Z,91.40
2018-11-05T00:03:25.035Z,91.70
2018-11-05T00:06:29.321Z,91.90
2018-11-05T00:09:33.680Z,91.80
2018-11-05T00:12:37.961Z,91.80
2018-11-05T00:15:42.008Z,91.90
2018-11-05T00:18:46.314Z,92.10
2018-11-05T00:21:50.228Z,92.10
2018-11-05T00:24:54.184Z,91.90
2018-11-05T00:27:58.158Z,92.10
2018-11-05T00:31:02.091Z,91.90
2018-11-05T00:34:06.162Z,92.10
2018-11-05T00:37:10.550Z,92.00
2018-11-05T00:40:16.384Z,92.00
2018-11-05T00:43:20.802Z,92.10
2018-11-05T00:46:25.212Z,92.10
2018-11-05T00:49:29.814Z,92.10
2018-11-05T00:52:34.295Z,92.20
2018-11-05T00:55:38.853Z,92.30
2018-11-05T00:58:43.171Z,92.40
2018-11-05T01:01:47.693Z,92.30
2018-11-05T01:04:51.883Z,92.30
2018-11-05T01:07:55.821Z,92.00
2018-11-05T01:11:00.361Z,91.90
2018-11-05T01:14:04.335Z,91.60
2018-11-05T01:17:08.205Z,91.80
2018-11-05T01:20:13.638Z,91.50
2018-11-05T01:23:17.479Z,91.40
2018-11-05T01:26:21.415Z,91.40
2018-11-05T01:29:25.303Z,91.40
2018-11-05T01:32:29.585Z,91.40
2018-11-05T01:35:34.524Z,91.40
2018-11-05T01:38:38.455Z,91.40
2018-11-05T01:41:42.520Z,91.00
2018-11-05T01:44:46.857Z,91.00
2018-11-05T01:47:50.841Z,91.10
2018-11-05T01:50:54.782Z,91.20
2018-11-05T01:53:58.907Z,91.40
2018-11-05T01:57:03.138Z,91.40
2018-11-05T02:00:10.270Z,91.50
2018-11-05T02:03:14.495Z,91.70
2018-11-05T02:06:19.381Z,91.40
2018-11-05T02:09:23.269Z,91.20
2018-11-05T02:12:27.818Z,91.20
2018-11-05T02:15:31.728Z,91.20
2018-11-05T02:18:35.651Z,91.40
2018-11-05T02:21:39.575Z,91.20
2018-11-05T02:24:43.477Z,91.10
2018-11-05T02:27:47.414Z,91.20
2018-11-05T02:30:51.930Z,91.10
2018-11-05T02:33:56.395Z,90.80
2018-11-05T02:37:00.262Z,90.90
2018-11-05T02:40:05.129Z,91.00
2018-11-05T02:43:09.949Z,91.10
2018-11-05T02:46:13.928Z,91.30
2018-11-05T02:49:18.004Z,91.30
2018-11-05T02:52:21.933Z,91.40
2018-11-05T02:55:26.427Z,91.50
2018-11-05T02:58:30.867Z,91.30
2018-11-05T03:01:35.130Z,91.20
2018-11-05T03:04:39.481Z,91.50
2018-11-05T03:07:44.369Z,92.00
2018-11-05T03:10:48.251Z,92.10
2018-11-05T03:13:52.101Z,92.10
2018-11-05T03:16:56.496Z,91.70
2018-11-05T03:20:00.964Z,91.60
2018-11-05T03:23:05.577Z,91.70
2018-11-05T03:26:09.919Z,91.60
2018-11-05T03:29:14.281Z,91.40
2018-11-05T03:32:18.518Z,91.00
2018-11-05T03:35:23.018Z,91.20
2018-11-05T03:38:27.336Z,91.00
2018-11-05T03:41:31.700Z,90.70
2018-11-05T03:44:36.190Z,90.70
2018-11-05T03:47:40.580Z,90.80
2018-11-05T03:50:44.936Z,91.00
2018-11-05T03:53:49.240Z,91.30
2018-11-05T03:56:53.519Z,91.40
2018-11-05T03:59:57.666Z,91.60
2018-11-05T04:03:01.969Z,91.80
2018-11-05T04:06:06.411Z,91.90
2018-11-05T04:09:11.779Z,91.70
2018-11-05T04:12:15.977Z,91.80
2018-11-05T04:15:20.526Z,92.00
2018-11-05T04:18:24.837Z,92.50
2018-11-05T04:21:34.299Z,92.90
2018-11-05T04:24:38.614Z,93.00
2018-11-05T04:27:43.041Z,93.10
2018-11-05T04:30:47.127Z,93.10
2018-11-05T04:33:51.543Z,93.30
2018-11-05T04:36:56.037Z,93.40
2018-11-05T04:40:00.350Z,93.60
2018-11-05T04:43:04.546Z,93.70
2018-11-05T04:46:08.880Z,93.80
2018-11-05T04:49:13.182Z,93.70
2018-11-05T04:52:17.502Z,93.60
2018-11-05T04:55:21.883Z,93.90
2018-11-05T04:58:27.017Z,94.00
2018-11-05T05:01:31.742Z,94.00
2018-11-05T05:04:36.070Z,94.00
2018-11-05T05:07:41.712Z,94.00
2018-11-05T05:10:45.990Z,93.70
2018-11-05T05:13:50.331Z,93.60
2018-11-05T05:16:54.724Z,93.60
2018-11-05T05:19:58.978Z,93.50
2018-11-05T05:23:03.427Z,93.60
2018-11-05T05:26:07.931Z,93.10
2018-11-05T05:29:12.279Z,93.10
2018-11-05T05:32:16.614Z,93.20
2018-11-05T05:35:20.859Z,92.90
2018-11-05T05:38:25.290Z,92.80
2018-11-05T05:41:30.012Z,92.70
2018-11-05T05:44:34.289Z,92.40
2018-11-05T05:47:38.520Z,92.00
2018-11-05T05:50:42.784Z,92.00
2018-11-05T05:53:47.243Z,92.30
2018-11-05T05:56:51.632Z,92.20
2018-11-05T05:59:56.967Z,92.30
2018-11-05T06:03:01.132Z,92.40
2018-11-05T06:06:05.830Z,91.90
2018-11-05T06:09:10.974Z,92.40
2018-11-05T06:12:15.310Z,92.10
2018-11-05T06:15:19.607Z,92.00
2018-11-05T06:18:23.966Z,92.10
2018-11-05T06:21:28.261Z,91.90
2018-11-05T06:24:32.583Z,92.10
2018-11-05T06:27:37.533Z,91.80
2018-11-05T06:30:41.892Z,92.00
2018-11-05T06:33:46.223Z,91.70
2018-11-05T06:36:50.505Z,91.50
2018-11-05T06:39:54.806Z,91.50
2018-11-05T06:42:59.162Z,91.40
2018-11-05T06:46:03.489Z,91.20
2018-11-05T06:49:07.837Z,90.90
2018-11-05T06:52:12.232Z,90.70
2018-11-05T06:55:17.035Z,90.70
2018-11-05T06:58:21.519Z,90.70
2018-11-05T07:01:25.843Z,90.40
2018-11-05T07:04:30.164Z,90.40
2018-11-05T07:07:34.483Z,90.30
2018-11-05T07:10:38.795Z,90.10
2018-11-05T07:13:43.217Z,90.10
2018-11-05T07:16:47.510Z,90.10
2018-11-05T07:19:51.695Z,90.10
2018-11-05T07:22:55.834Z,90.00
2018-11-05T07:26:00.169Z,90.10
2018-11-05T07:29:04.615Z,90.00
2018-11-05T07:32:08.929Z,89.90
2018-11-05T07:35:14.081Z,89.40
2018-11-05T07:38:18.262Z,90.00
2018-11-05T07:41:22.918Z,90.00
2018-11-05T07:44:27.222Z,89.40
2018-11-05T07:47:37.925Z,89.00
2018-11-05T07:50:42.156Z,89.50
2018-11-05T07:53:46.507Z,89.30
2018-11-05T07:56:50.821Z,88.30
2018-11-05T07:59:55.276Z,88.60
2018-11-05T08:02:59.843Z,88.50
2018-11-05T08:06:04.143Z,88.50
2018-11-05T08:09:11.116Z,88.00
2018-11-05T08:12:15.573Z,88.50
2018-11-05T08:15:21.133Z,88.30
2018-11-05T08:18:25.346Z,87.20
2018-11-05T08:21:29.554Z,87.20
2018-11-05T08:24:33.726Z,86.90
2018-11-05T08:27:38.498Z,85.80
2018-11-05T08:30:43.017Z,84.80
2018-11-05T08:33:47.472Z,85.20
2018-11-05T08:36:51.796Z,85.20
2018-11-05T08:39:56.026Z,84.40
2018-11-05T08:43:00.347Z,83.60
2018-11-05T08:46:04.847Z,83.10
2018-11-05T08:49:09.733Z,83.70
2018-11-05T08:52:13.881Z,83.10
2018-11-05T08:55:21.605Z,84.30
2018-11-05T08:58:25.824Z,84.30
2018-11-05T09:01:33.105Z,84.40
2018-11-05T09:04:38.326Z,83.10
2018-11-05T09:07:43.387Z,83.10
2018-11-05T09:10:48.091Z,82.30
2018-11-05T09:13:52.294Z,82.50
2018-11-05T09:16:56.702Z,81.10
2018-11-05T09:20:00.970Z,81.00
2018-11-05T09:23:05.503Z,82.80
2018-11-05T09:26:10.252Z,83.10
2018-11-05T09:29:14.453Z,83.00
2018-11-05T09:32:19.253Z,83.40
2018-11-05T09:35:23.553Z,83.70
2018-11-05T09:38:27.958Z,83.90
2018-11-05T09:41:32.282Z,84.30
2018-11-05T09:44:36.481Z,84.40
2018-11-05T09:47:40.939Z,84.30
2018-11-05T09:50:45.342Z,80.10
2018-11-05T09:53:49.603Z,77.60
2018-11-05T09:56:53.913Z,75.80
2018-11-05T09:59:58.105Z,74.90
2018-11-05T10:03:07.757Z,72.60
2018-11-05T10:06:11.872Z,73.10
2018-11-05T10:09:16.141Z,73.20
2018-11-05T10:12:20.462Z,74.20
2018-11-05T10:15:24.840Z,75.20
2018-11-05T10:18:29.223Z,76.60
2018-11-05T10:21:33.382Z,76.80
2018-11-05T10:24:37.608Z,77.50
2018-11-05T10:27:42.055Z,78.40
2018-11-05T10:30:46.145Z,78.50
2018-11-05T10:33:50.958Z,77.20
2018-11-05T10:36:55.530Z,77.20
2018-11-05T10:39:59.820Z,77.50
2018-11-05T10:43:04.175Z,77.40
2018-11-05T10:46:08.826Z,77.20
2018-11-05T10:49:12.975Z,76.90
2018-11-05T10:52:17.541Z,76.90
2018-11-05T10:55:21.642Z,78.30
2018-11-05T10:58:25.960Z,77.60
2018-11-05T11:01:36.069Z,78.20
2018-11-05T11:04:40.019Z,77.80
2018-11-05T11:07:43.967Z,77.70
2018-11-05T11:10:47.898Z,77.30
2018-11-05T11:13:52.138Z,77.00
2018-11-05T11:16:56.074Z,76.40
2018-11-05T11:19:59.996Z,75.10
2018-11-05T11:23:03.994Z,74.90
2018-11-05T11:26:07.951Z,74.50
2018-11-05T11:29:12.323Z,73.20
2018-11-05T11:32:16.571Z,73.50
2018-11-05T11:35:21.037Z,73.50
2018-11-05T11:38:24.976Z,70.00
2018-11-05T11:41:28.900Z,66.70
2018-11-05T11:44:32.761Z,65.00
2018-11-05T11:47:36.649Z,65.80
2018-11-05T11:50:40.768Z,67.30
2018-11-05T11:53:44.874Z,68.70
2018-11-05T11:56:49.038Z,69.70
2018-11-05T11:59:52.932Z,70.00
2018-11-05T12:02:56.795Z,68.90
2018-11-05T12:06:00.694Z,70.10
2018-11-05T12:09:06.532Z,70.80
2018-11-05T12:12:11.757Z,70.90
2018-11-05T12:15:16.948Z,71.10
2018-11-05T12:18:20.811Z,71.90
2018-11-05T12:21:24.783Z,72.60
2018-11-05T12:24:28.991Z,73.10
2018-11-05T12:27:32.917Z,73.30
2018-11-05T12:30:36.810Z,73.70
2018-11-05T12:33:41.112Z,74.30
2018-11-05T12:36:45.196Z,74.70
2018-11-05T12:39:49.077Z,74.70
2018-11-05T12:42:53.211Z,74.70
2018-11-05T12:45:57.101Z,74.80
2018-11-05T12:49:01.492Z,75.90
2018-11-05T12:52:05.524Z,76.40
2018-11-05T12:55:10.481Z,76.60
2018-11-05T12:58:14.846Z,77.20
2018-11-05T13:01:18.742Z,77.40
2018-11-05T13:04:22.654Z,77.70
2018-11-05T13:07:26.566Z,77.80
2018-11-05T13:10:31.568Z,77.50
2018-11-05T13:13:35.937Z,78.00
2018-11-05T13:16:39.913Z,78.30
2018-11-05T13:19:43.853Z,78.40
2018-11-05T13:22:48.073Z,78.50
2018-11-05T13:25:52.171Z,78.20
2018-11-05T13:28:56.137Z,78.30
2018-11-05T13:32:00.096Z,78.20
2018-11-05T13:35:04.067Z,78.90
2018-11-05T13:38:08.456Z,78.80
2018-11-05T13:41:12.006Z,78.50
2018-11-05T13:44:16.022Z,78.90
2018-11-05T13:47:20.766Z,78.80
2018-11-05T13:50:24.364Z,78.50
2018-11-05T13:53:28.042Z,78.90
2018-11-05T13:56:31.936Z,78.90
2018-11-05T13:59:36.422Z,79.40
2018-11-05T14:02:40.434Z,80.00
2018-11-05T14:05:44.957Z,80.40
2018-11-05T14:08:49.149Z,80.70
2018-11-05T14:11:53.621Z,81.00
2018-11-05T14:14:58.143Z,80.90
2018-11-05T14:18:02.122Z,80.80
2018-11-05T14:21:06.954Z,82.10
2018-11-05T14:24:11.337Z,82.00
2018-11-05T14:27:15.241Z,81.80
2018-11-05T14:30:19.454Z,81.00
2018-11-05T14:33:24.402Z,80.90
2018-11-05T14:36:28.420Z,81.60
2018-11-05T14:39:32.633Z,80.90
2018-11-05T14:42:36.816Z,81.60
2018-11-05T14:45:40.807Z,81.50
2018-11-05T14:48:45.118Z,81.60
2018-11-05T14:51:50.027Z,81.50
2018-11-05T14:54:53.976Z,81.60
2018-11-05T14:57:58.422Z,81.80
2018-11-05T15:01:02.856Z,82.10
2018-11-05T15:04:06.785Z,82.30
2018-11-05T15:07:10.792Z,82.50
2018-11-05T15:10:17.345Z,82.50
2018-11-05T15:13:21.860Z,83.00
2018-11-05T15:16:25.901Z,83.30
2018-11-05T15:19:30.281Z,83.20
2018-11-05T15:22:34.329Z,83.50
2018-11-05T15:25:39.781Z,83.60
2018-11-05T15:28:44.667Z,83.70
2018-11-05T15:31:48.577Z,83.60
2018-11-05T15:34:52.498Z,83.60
2018-11-05T15:37:56.338Z,83.90
2018-11-05T15:41:00.308Z,84.10
2018-11-05T15:44:04.189Z,84.00
2018-11-05T15:47:08.077Z,83.80
2018-11-05T15:50:13.717Z,83.60
2018-11-05T15:53:18.457Z,83.80
2018-11-05T15:56:21.957Z,84.10
2018-11-05T15:59:25.952Z,84.40
2018-11-05T16:02:29.856Z,84.70
2018-11-05T16:05:34.257Z,84.90
2018-11-05T16:08:38.149Z,85.50
2018-11-05T16:11:42.585Z,85.00
2018-11-05T16:14:47.347Z,85.50
2018-11-05T16:17:51.742Z,86.30
2018-11-05T16:20:56.067Z,85.40
2018-11-05T16:24:00.058Z,85.40
2018-11-05T16:27:06.964Z,85.50
2018-11-05T16:30:12.996Z,85.50
2018-11-05T16:33:16.964Z,85.70
2018-11-05T16:36:20.888Z,85.90
2018-11-05T16:39:25.128Z,86.10
2018-11-05T16:42:29.535Z,86.00
2018-11-05T16:45:33.618Z,86.20
2018-11-05T16:48:37.535Z,86.30
2018-11-05T16:51:41.565Z,86.60
2018-11-05T16:54:45.670Z,87.00
2018-11-05T16:57:49.858Z,87.60
2018-11-05T17:00:53.817Z,87.80
2018-11-05T17:03:58.165Z,87.60
2018-11-05T17:07:02.531Z,87.60
2018-11-05T17:10:08.082Z,87.80
2018-11-05T17:13:13.320Z,87.30
2018-11-05T17:16:17.256Z,87.20
2018-11-05T17:19:21.693Z,87.20
2018-11-05T17:22:25.717Z,87.70
2018-11-05T17:25:29.801Z,88.00
2018-11-05T17:28:34.179Z,88.70
2018-11-05T17:31:38.247Z,87.60
2018-11-05T17:34:42.165Z,87.40
2018-11-05T17:37:47.120Z,87.10
2018-11-05T17:40:51.593Z,87.10
2018-11-05T17:43:56.015Z,87.10
2018-11-05T17:47:00.214Z,87.00
2018-11-05T17:50:04.836Z,87.00
2018-11-05T17:53:09.355Z,87.40
2018-11-05T17:56:13.636Z,87.40
2018-11-05T17:59:18.022Z,87.70
2018-11-05T18:02:23.944Z,87.70
2018-11-05T18:05:27.929Z,87.60
2018-11-05T18:08:32.217Z,87.60
2018-11-05T18:11:36.243Z,88.30
2018-11-05T18:14:40.263Z,87.80
2018-11-05T18:17:45.436Z,88.20
2018-11-05T18:20:49.703Z,88.20
2018-11-05T18:23:54.411Z,88.50
2018-11-05T18:26:58.629Z,88.40
2018-11-05T18:30:02.758Z,88.40
2018-11-05T18:33:06.880Z,88.60
2018-11-05T18:36:11.427Z,88.80
2018-11-05T18:39:15.791Z,88.90
2018-11-05T18:42:19.679Z,89.10
2018-11-05T18:45:23.717Z,89.20
2018-11-05T18:48:27.646Z,89.60
2018-11-05T18:51:31.993Z,89.30
2018-11-05T18:54:36.532Z,89.20
2018-11-05T18:57:40.798Z,90.10
2018-11-05T19:00:45.132Z,89.60
2018-11-05T19:03:49.118Z,90.10
2018-11-05T19:06:53.037Z,90.20
2018-11-05T19:09:57.135Z,90.20
2018-11-05T19:13:01.661Z,90.40
2018-11-05T19:16:05.967Z,90.30
2018-11-05T19:19:09.952Z,90.40
2018-11-05T19:22:13.911Z,90.40
2018-11-05T19:25:18.312Z,90.20
2018-11-05T19:28:22.396Z,90.10
2018-11-05T19:31:26.684Z,90.10
2018-11-05T19:34:31.081Z,90.10
2018-11-05T19:37:34.986Z,90.00
2018-11-05T19:40:45.867Z,90.00
2018-11-05T19:43:50.040Z,90.00
2018-11-05T19:46:54.545Z,89.60
2018-11-05T19:49:58.910Z,90.10
2018-11-05T19:53:03.790Z,90.20
2018-11-05T19:56:09.100Z,90.20
2018-11-05T19:59:15.920Z,89.90
2018-11-05T20:02:20.467Z,89.70
2018-11-05T20:05:24.901Z,89.70
2018-11-05T20:08:29.260Z,89.60
2018-11-05T20:11:33.199Z,89.40
2018-11-05T20:14:37.145Z,90.10
2018-11-05T20:17:42.393Z,90.10
2018-11-05T20:20:46.580Z,90.40
2018-11-05T20:23:50.472Z,90.20
2018-11-05T20:26:54.416Z,90.50
2018-11-05T20:29:58.312Z,90.20
2018-11-05T20:33:02.376Z,90.20
2018-11-05T20:36:06.372Z,90.20
2018-11-05T20:39:11.314Z,90.00
2018-11-05T20:42:15.874Z,90.00
2018-11-05T20:45:20.638Z,90.20
2018-11-05T20:48:25.043Z,90.20
2018-11-05T20:51:29.481Z,90.30
2018-11-05T20:54:35.491Z,90.60
2018-11-05T20:57:39.740Z,90.20
2018-11-05T21:00:43.943Z,90.20
2018-11-05T21:03:47.920Z,90.40
2018-11-05T21:06:51.884Z,90.50
2018-11-05T21:09:56.249Z,90.70
2018-11-05T21:13:01.781Z,90.70
2018-11-05T21:16:05.957Z,91.00
2018-11-05T21:19:09.891Z,90.80
2018-11-05T21:22:14.190Z,90.60
2018-11-05T21:25:18.138Z,90.50
2018-11-05T21:28:22.595Z,90.40
2018-11-05T21:31:26.491Z,90.20
2018-11-05T21:34:30.527Z,90.10
2018-11-05T21:37:34.840Z,90.20
2018-11-05T21:40:38.880Z,90.10
2018-11-05T21:43:43.327Z,90.20
2018-11-05T21:46:47.245Z,90.30
2018-11-05T21:49:51.431Z,90.00
2018-11-05T21:52:55.342Z,90.20
2018-11-05T21:55:59.297Z,90.30
2018-11-05T21:59:03.810Z,90.40
2018-11-05T22:02:08.268Z,90.40
2018-11-05T22:05:12.240Z,90.60
2018-11-05T22:08:16.454Z,90.70
2018-11-05T22:11:20.420Z,90.60
2018-11-05T22:14:24.626Z,90.70
2018-11-05T22:17:28.495Z,90.70
2018-11-05T22:20:32.700Z,90.80
2018-11-05T22:23:36.600Z,91.00
2018-11-05T22:26:40.560Z,90.90
2018-11-05T22:29:44.794Z,90.90
2018-11-05T22:32:48.799Z,91.30
2018-11-05T22:35:52.980Z,90.90
2018-11-05T22:38:56.906Z,90.90
2018-11-05T22:42:00.781Z,90.80
2018-11-05T22:45:05.078Z,90.80
2018-11-05T22:48:08.984Z,90.80
2018-11-05T22:51:13.305Z,90.80
2018-11-05T22:54:17.658Z,90.60
2018-11-05T22:57:21.587Z,90.50
2018-11-05T23:00:31.211Z,90.40
2018-11-05T23:03:35.788Z,90.30
2018-11-05T23:06:39.629Z,90.10
2018-11-05T23:09:43.946Z,90.10
2018-11-05T23:12:47.868Z,90.10
2018-11-05T23:15:52.422Z,89.70
2018-11-05T23:18:56.763Z,90.00
2018-11-05T23:22:01.096Z,90.00
2018-11-05T23:25:05.586Z,90.00
2018-11-05T23:28:09.451Z,90.00
2018-11-05T23:31:13.618Z,90.00
2018-11-05T23:34:17.925Z,90.00
2018-11-05T23:37:21.902Z,90.20
2018-11-05T23:40:26.227Z,90.30
2018-11-05T23:43:30.077Z,90.30
2018-11-05T23:46:34.131Z,90.20
2018-11-05T23:49:38.334Z,90.00
2018-11-05T23:52:43.620Z,90.10
2018-11-05T23:55:47.819Z,90.30
2018-11-05T23:58:52.258Z,90.30
